Time;durP1;ratioP1;P1;durP2;ratioP2;P2;SDS_P1;SDS_P2;PMS_P1;PMS_P2;Temp;Humidity;BMP_temperature;BMP_pressure;BME280_temperature;BME280_humidity;BME280_pressure;Samples;Min_cycle;Max_cycle;Signal;HPM_P1;HPM_P2
2021/12/07 13:47:56;;;;;;;13.30;7.20;;;;;;;3.89;71.58;97643.44;5077414;23;20065;-52
2021/12/07 13:50:24;;;;;;;12.65;5.03;;;;;;;3.87;71.56;97637.50;4855833;29;20038;-50
2021/12/07 13:52:50;;;;;;;9.95;2.90;;;;;;;3.67;72.26;97636.75;4866469;29;20021;-51
2021/12/07 13:55:20;;;;;;;12.07;4.63;;;;;;;3.85;71.75;97642.75;4853391;29;20409;-49
2021/12/07 13:57:49;;;;;;;10.30;4.47;;;;;;;4.04;70.90;97653.06;4861310;29;20037;-52
2021/12/07 14:00:26;;;;;;;10.82;3.55;;;;;;;3.73;71.88;97652.00;4861942;29;20363;-50
2021/12/07 14:02:55;;;;;;;10.00;3.97;;;;;;;3.88;71.93;97650.38;4863513;29;20033;-55
2021/12/07 14:05:35;;;;;;;10.15;3.28;;;;;;;3.71;72.56;97656.41;4864304;29;20036;-53
2021/12/07 14:08:03;;;;;;;11.35;2.97;;;;;;;3.75;72.23;97655.38;4863553;29;20025;-54
2021/12/07 14:10:30;;;;;;;7.88;2.55;;;;;;;3.59;73.14;97648.44;4863786;29;20040;-49
2021/12/07 14:12:58;;;;;;;12.25;2.80;;;;;;;3.67;72.64;97660.09;4862239;29;20338;-50
2021/12/07 14:15:31;;;;;;;11.63;2.95;;;;;;;3.47;73.53;97658.47;4865728;29;20030;-55
2021/12/07 14:17:58;;;;;;;8.82;2.70;;;;;;;3.31;74.26;97653.19;4863976;29;20530;-55
2021/12/07 14:20:31;;;;;;;9.15;3.20;;;;;;;3.33;74.84;97647.94;4866486;29;20025;-55
2021/12/07 14:22:56;;;;;;;7.50;3.00;;;;;;;3.31;74.56;97658.38;4861692;29;20029;-53
2021/12/07 14:25:21;;;;;;;134.45;38.72;;;;;;;3.35;74.25;97648.69;4848847;29;20030;-49
2021/12/07 14:27:48;;;;;;;41.13;14.57;;;;;;;3.35;74.16;97653.06;4845447;29;20029;-52
2021/12/07 14:30:14;;;;;;;36.97;14.50;;;;;;;3.38;72.97;97653.75;4844614;29;20129;-54
2021/12/07 14:32:41;;;;;;;15.68;5.85;;;;;;;3.29;73.83;97655.00;4841266;29;20478;-52
2021/12/07 14:35:06;;;;;;;10.60;3.50;;;;;;;3.38;72.34;97658.94;4842183;29;20537;-51
2021/12/07 14:37:32;;;;;;;8.98;4.10;;;;;;;3.31;73.89;97655.78;4841015;29;20109;-52
2021/12/07 14:39:57;;;;;;;8.13;3.83;;;;;;;3.30;73.85;97645.47;4840880;29;20394;-50
2021/12/07 14:42:23;;;;;;;14.00;4.78;;;;;;;3.31;73.03;97644.59;4840844;29;20034;-49
2021/12/07 14:44:50;;;;;;;9.70;4.45;;;;;;;3.31;73.27;97647.19;4841705;29;20026;-49
2021/12/07 14:47:16;;;;;;;11.70;4.80;;;;;;;3.26;72.88;97647.38;4842497;29;20037;-48
2021/12/07 14:49:43;;;;;;;14.63;4.35;;;;;;;3.21;73.34;97630.38;4850462;29;20034;-52
2021/12/07 14:52:16;;;;;;;13.90;5.50;;;;;;;3.13;74.26;97633.31;4845973;29;20034;-51
2021/12/07 14:54:42;;;;;;;12.80;5.13;;;;;;;3.25;73.59;97644.88;4842308;29;20026;-50
2021/12/07 14:57:07;;;;;;;13.32;5.82;;;;;;;3.24;73.33;97635.44;4845743;29;20039;-51
2021/12/07 14:59:37;;;;;;;10.02;4.05;;;;;;;3.35;73.64;97638.34;4846721;29;20108;-50
2021/12/07 15:02:02;;;;;;;12.82;5.13;;;;;;;3.30;73.55;97648.06;4842365;29;20109;-50
2021/12/07 15:04:28;;;;;;;12.25;4.15;;;;;;;3.31;74.05;97652.38;4845022;29;20090;-52
2021/12/07 15:06:59;;;;;;;10.77;4.82;;;;;;;3.19;74.21;97643.41;4843734;29;20040;-53
2021/12/07 15:09:26;;;;;;;11.25;3.95;;;;;;;3.21;73.69;97636.41;4842596;29;20064;-55
2021/12/07 15:11:52;;;;;;;11.90;5.07;;;;;;;3.30;73.38;97632.50;4845200;29;20030;-52
2021/12/07 15:14:21;;;;;;;12.27;3.75;;;;;;;3.22;73.53;97645.03;4845493;29;20041;-52
2021/12/07 15:16:48;;;;;;;14.65;4.57;;;;;;;3.09;73.87;97637.81;4855845;29;20057;-54
2021/12/07 15:19:13;;;;;;;10.23;3.95;;;;;;;3.12;73.83;97641.19;4863266;29;20033;-53
2021/12/07 15:21:39;;;;;;;9.95;3.97;;;;;;;3.27;73.93;97633.53;4864356;29;20025;-51
2021/12/07 15:24:13;;;;;;;9.50;3.85;;;;;;;3.15;73.88;97620.31;4865465;29;20037;-56
2021/12/07 15:26:38;;;;;;;9.80;3.78;;;;;;;2.92;75.02;97627.41;4864984;29;20056;-51
2021/12/07 15:29:09;;;;;;;11.13;3.50;;;;;;;2.88;75.58;97625.03;4866166;29;20033;-50
2021/12/07 15:31:45;;;;;;;11.25;3.42;;;;;;;3.03;75.33;97625.19;4864287;29;20025;-53
2021/12/07 15:34:10;;;;;;;9.18;3.67;;;;;;;2.96;75.18;97628.97;4849806;29;20029;-49
2021/12/07 15:36:40;;;;;;;9.27;3.67;;;;;;;2.86;75.69;97619.94;4845483;29;20026;-53
2021/12/07 15:39:14;;;;;;;15.10;3.95;;;;;;;2.85;75.84;97636.38;4847341;29;20034;-50
2021/12/07 15:41:45;;;;;;;10.88;3.92;;;;;;;2.78;76.17;97627.22;4846758;29;20068;-54
2021/12/07 15:44:10;;;;;;;10.77;3.95;;;;;;;2.88;76.06;97628.47;4847558;29;20040;-54
2021/12/07 15:46:52;;;;;;;36.25;10.07;;;;;;;2.91;75.39;97615.38;4846499;29;20030;-55
2021/12/07 15:49:34;;;;;;;10.48;3.95;;;;;;;2.82;75.53;97608.03;4846099;29;20085;-52
2021/12/07 15:52:02;;;;;;;11.57;4.18;;;;;;;3.00;75.32;97607.19;4845572;29;20087;-51
2021/12/07 15:54:28;;;;;;;18.13;5.50;;;;;;;3.12;74.79;97616.09;4845840;29;20041;-49
2021/12/07 15:57:01;;;;;;;21.08;6.38;;;;;;;2.98;73.83;97609.00;4845285;29;20328;-53
2021/12/07 15:59:27;;;;;;;11.60;3.95;;;;;;;2.87;74.19;97595.72;4846311;29;20034;-51
2021/12/07 16:01:52;;;;;;;15.55;5.60;;;;;;;2.70;74.54;97580.97;4846775;29;20034;-50
2021/12/07 16:04:37;;;;;;;15.10;4.93;;;;;;;2.63;74.99;97586.50;4826008;29;20037;-52
2021/12/07 16:07:17;;;;;;;15.13;4.10;;;;;;;2.67;74.36;97588.03;4824296;29;20506;-54
2021/12/07 16:09:42;;;;;;;10.73;3.75;;;;;;;2.51;75.21;97593.06;4825535;29;20487;-51
2021/12/07 16:12:14;;;;;;;9.40;3.30;;;;;;;2.48;75.52;97588.03;4854988;29;20033;-50
2021/12/07 16:14:40;;;;;;;10.98;4.72;;;;;;;2.34;75.35;97570.53;4861976;29;20545;-50
2021/12/07 16:17:18;;;;;;;13.75;4.00;;;;;;;2.45;75.23;97578.69;4862142;29;20041;-49
2021/12/07 16:19:44;;;;;;;11.38;3.22;;;;;;;2.47;75.83;97570.84;4861996;29;20032;-49
2021/12/07 16:22:09;;;;;;;8.00;2.78;;;;;;;2.59;75.16;97565.94;4859741;29;20038;-50
2021/12/07 16:24:35;;;;;;;10.13;2.67;;;;;;;2.52;75.20;97564.53;4861961;29;20025;-54
2021/12/07 16:27:00;;;;;;;11.00;2.80;;;;;;;2.61;75.56;97561.53;4861768;29;20028;-50
2021/12/07 16:29:25;;;;;;;9.32;2.72;;;;;;;2.50;76.03;97563.75;4862137;29;20038;-49
2021/12/07 16:31:51;;;;;;;8.73;2.95;;;;;;;2.54;75.78;97560.13;4859567;29;20029;-48
2021/12/07 16:34:17;;;;;;;6.78;2.55;;;;;;;2.59;75.62;97559.91;4861322;29;20538;-50
2021/12/07 16:36:44;;;;;;;10.50;3.20;;;;;;;2.65;75.77;97562.22;4861436;29;20052;-49
2021/12/07 16:39:10;;;;;;;9.18;3.03;;;;;;;2.55;76.46;97560.97;4861571;29;20102;-50
2021/12/07 16:41:35;;;;;;;10.38;3.17;;;;;;;2.43;76.62;97552.00;4861309;29;20435;-52
2021/12/07 16:44:01;;;;;;;8.63;3.28;;;;;;;2.43;76.78;97538.25;4859888;29;20029;-52
2021/12/07 16:46:26;;;;;;;9.10;3.20;;;;;;;2.26;77.16;97541.59;4862271;29;20482;-53
2021/12/07 16:48:51;;;;;;;8.30;3.30;;;;;;;2.39;76.54;97534.97;4866730;29;20038;-49
2021/12/07 16:51:17;;;;;;;12.65;3.72;;;;;;;2.24;77.10;97535.69;4865439;29;20086;-50
2021/12/07 16:53:43;;;;;;;12.20;3.13;;;;;;;2.03;77.51;97533.16;4863425;29;20041;-53
2021/12/07 16:56:08;;;;;;;9.00;3.42;;;;;;;1.99;78.02;97530.75;4866148;29;20413;-48
2021/12/07 16:58:34;;;;;;;9.35;3.75;;;;;;;1.84;77.99;97519.34;4864982;29;20090;-50
2021/12/07 17:01:00;;;;;;;17.40;3.80;;;;;;;1.94;77.92;97518.03;4864664;29;20104;-50
2021/12/07 17:03:25;;;;;;;10.60;3.72;;;;;;;1.75;78.43;97525.75;4847345;29;20089;-48
2021/12/07 17:05:51;;;;;;;9.65;3.55;;;;;;;1.69;79.15;97514.84;4865004;29;20025;-51
2021/12/07 17:08:17;;;;;;;13.52;3.88;;;;;;;1.76;78.15;97514.53;4853997;29;20041;-47
2021/12/07 17:10:42;;;;;;;12.15;4.32;;;;;;;1.69;78.53;97509.66;4846728;29;20025;-52
2021/12/07 17:13:08;;;;;;;14.75;5.63;;;;;;;1.60;79.24;97506.59;4846417;29;20293;-50
2021/12/07 17:15:34;;;;;;;11.38;4.82;;;;;;;1.54;79.17;97506.84;4846923;29;20040;-52
2021/12/07 17:17:59;;;;;;;11.70;4.05;;;;;;;1.52;79.40;97506.09;4846621;29;20038;-49
2021/12/07 17:20:24;;;;;;;12.07;5.00;;;;;;;1.50;79.13;97502.72;4847488;29;20029;-50
2021/12/07 17:22:50;;;;;;;13.13;5.68;;;;;;;1.50;78.82;97500.13;4845908;29;20030;-50
2021/12/07 17:25:16;;;;;;;14.43;6.15;;;;;;;1.47;79.56;97492.53;4848778;29;20029;-50
2021/12/07 17:27:42;;;;;;;17.27;7.07;;;;;;;1.42;79.70;97489.31;4848302;29;20034;-50
2021/12/07 17:30:08;;;;;;;19.23;7.72;;;;;;;1.28;79.89;97489.06;4847732;29;20106;-48
2021/12/07 17:32:34;;;;;;;17.20;7.15;;;;;;;1.33;80.14;97481.94;4846224;29;20034;-50
2021/12/07 17:34:59;;;;;;;17.60;6.93;;;;;;;1.23;79.97;97470.31;4846995;29;20029;-49
2021/12/07 17:37:25;;;;;;;19.25;7.07;;;;;;;1.25;79.94;97479.69;4848849;29;20106;-48
2021/12/07 17:39:50;;;;;;;16.83;7.40;;;;;;;1.30;79.83;97471.72;4865367;29;20033;-47
2021/12/07 17:42:18;;;;;;;17.20;7.85;;;;;;;1.12;80.36;97470.78;4866416;29;20036;-51
2021/12/07 17:44:43;;;;;;;22.55;9.27;;;;;;;0.86;81.10;97479.59;4866442;29;20037;-48
2021/12/07 17:47:09;;;;;;;21.80;8.90;;;;;;;0.90;81.87;97473.44;4864420;29;20029;-48
2021/12/07 17:49:34;;;;;;;19.58;8.30;;;;;;;0.92;81.15;97453.53;4865466;29;20025;-52
2021/12/07 17:52:03;;;;;;;19.38;8.35;;;;;;;0.91;81.51;97450.13;4861207;29;20033;-53
2021/12/07 17:54:29;;;;;;;19.05;9.23;;;;;;;0.91;81.61;97444.97;4860795;29;20029;-50
2021/12/07 17:56:54;;;;;;;22.20;9.77;;;;;;;0.84;80.75;97440.13;4858971;29;20044;-52
2021/12/07 17:59:19;;;;;;;18.83;10.00;;;;;;;0.65;82.05;97455.50;4857983;29;20530;-49
2021/12/07 18:01:45;;;;;;;21.27;9.68;;;;;;;0.57;82.48;97450.66;4845827;29;20036;-51
2021/12/07 18:04:10;;;;;;;22.92;11.52;;;;;;;0.60;82.27;97452.28;4847528;29;20077;-48
2021/12/07 18:06:35;;;;;;;21.67;10.23;;;;;;;0.76;81.66;97448.19;4847179;29;20022;-50
2021/12/07 18:09:01;;;;;;;21.67;10.20;;;;;;;0.74;81.67;97441.41;4845053;29;20353;-49
2021/12/07 18:11:28;;;;;;;21.15;10.05;;;;;;;0.77;81.98;97442.13;4845613;29;20036;-50
2021/12/07 18:13:54;;;;;;;21.27;10.05;;;;;;;0.61;81.87;97439.31;4845013;29;20323;-49
2021/12/07 18:16:19;;;;;;;22.80;9.82;;;;;;;0.53;82.42;97432.81;4846309;29;20105;-49
2021/12/07 18:18:44;;;;;;;22.50;10.02;;;;;;;0.51;82.30;97434.59;4845517;29;20034;-52
2021/12/07 18:21:10;;;;;;;21.95;9.60;;;;;;;0.43;82.35;97424.59;4845331;29;20030;-49
2021/12/07 18:23:35;;;;;;;17.58;8.98;;;;;;;0.69;81.74;97426.94;4845147;29;20026;-50
2021/12/07 18:26:01;;;;;;;26.58;10.40;;;;;;;0.44;82.52;97445.16;4845175;29;20389;-52
2021/12/07 18:28:26;;;;;;;18.42;9.38;;;;;;;0.51;82.26;97443.16;4858776;29;20034;-49
2021/12/07 18:30:52;;;;;;;23.45;10.48;;;;;;;0.65;81.69;97438.31;4864878;29;20029;-52
2021/12/07 18:33:23;;;;;;;23.58;10.82;;;;;;;0.47;81.83;97450.19;4865023;29;20033;-51
2021/12/07 18:35:50;;;;;;;25.55;11.13;;;;;;;0.46;82.16;97448.53;4865021;29;20032;-53
2021/12/07 18:38:16;;;;;;;28.40;11.65;;;;;;;0.49;82.00;97436.41;4863243;29;20406;-49
2021/12/07 18:40:41;;;;;;;24.13;10.90;;;;;;;0.47;81.97;97426.13;4864479;29;20030;-48
2021/12/07 18:43:06;;;;;;;20.77;10.95;;;;;;;0.46;81.77;97425.31;4851450;29;20045;-50
2021/12/07 18:45:32;;;;;;;21.65;11.13;;;;;;;0.39;82.47;97417.88;4848722;29;20095;-50
2021/12/07 18:47:57;;;;;;;22.83;10.70;;;;;;;0.37;82.38;97419.66;4850784;29;20038;-52
2021/12/07 18:50:23;;;;;;;21.65;10.93;;;;;;;0.33;82.37;97431.00;4868096;29;20025;-52
2021/12/07 18:52:48;;;;;;;20.75;9.57;;;;;;;0.40;82.32;97427.28;4868440;29;20041;-48
2021/12/07 18:55:14;;;;;;;20.27;10.25;;;;;;;0.30;82.96;97431.13;4867958;29;20036;-52
2021/12/07 18:57:40;;;;;;;23.83;10.32;;;;;;;0.21;82.62;97434.94;4866645;29;20041;-50
2021/12/07 19:00:13;;;;;;;19.30;9.80;;;;;;;0.36;82.47;97425.72;4854283;29;20041;-50
2021/12/07 19:02:41;;;;;;;18.30;9.30;;;;;;;0.27;82.19;97429.50;4850076;29;20029;-49
2021/12/07 19:05:07;;;;;;;23.65;11.25;;;;;;;0.27;82.87;97411.44;4848941;29;20046;-50
2021/12/07 19:07:34;;;;;;;24.17;11.70;;;;;;;0.15;83.23;97410.22;4849029;29;20575;-49
2021/12/07 19:10:00;;;;;;;28.35;12.48;;;;;;;0.25;82.32;97412.44;4849972;29;20032;-50
2021/12/07 19:12:25;;;;;;;27.10;12.88;;;;;;;0.06;82.86;97386.53;4849129;29;20037;-51
2021/12/07 19:14:50;;;;;;;21.98;11.35;;;;;;;0.19;82.78;97398.88;4849303;29;20022;-49
2021/12/07 19:17:16;;;;;;;26.73;11.98;;;;;;;0.14;82.32;97394.81;4849430;29;20398;-52
2021/12/07 19:19:41;;;;;;;24.52;12.52;;;;;;;0.04;83.07;97383.19;4849792;29;20077;-49
2021/12/07 19:22:06;;;;;;;24.65;11.77;;;;;;;-0.03;82.78;97380.84;4867323;29;20033;-50
2021/12/07 19:53:07;;;;;;;16.83;8.80;;;;;;;-0.39;84.06;97334.13;4999613;23;20137;-49
2021/12/07 19:55:33;;;;;;;20.33;8.60;;;;;;;-0.27;83.43;97323.34;4860170;29;20033;-48
2021/12/07 19:57:59;;;;;;;25.95;8.50;;;;;;;-0.31;83.58;97310.63;4867182;29;20025;-48
2021/12/07 20:00:31;;;;;;;16.60;8.32;;;;;;;-0.22;83.27;97314.59;4857722;29;20513;-48
2021/12/07 20:02:56;;;;;;;20.65;9.13;;;;;;;-0.43;83.68;97319.69;4847612;29;20044;-51
2021/12/07 20:05:23;;;;;;;18.90;8.55;;;;;;;-0.45;83.38;97311.16;4863400;29;20029;-49
2021/12/07 20:07:50;;;;;;;17.38;8.63;;;;;;;-0.63;85.03;97315.28;4851184;29;20105;-48
2021/12/07 20:10:16;;;;;;;15.32;7.82;;;;;;;-0.59;84.76;97306.53;4853820;29;20044;-50
2021/12/07 20:12:41;;;;;;;20.02;9.00;;;;;;;-0.67;84.80;97297.44;4863945;29;20041;-50
2021/12/07 20:15:07;;;;;;;19.23;9.20;;;;;;;-0.52;84.35;97302.88;4851961;29;20482;-48
2021/12/07 20:17:32;;;;;;;23.30;9.75;;;;;;;-0.59;84.42;97295.41;4852748;29;20124;-49
2021/12/07 20:19:58;;;;;;;23.75;10.68;;;;;;;-0.68;84.10;97290.63;4861375;29;20504;-49
2021/12/07 20:22:23;;;;;;;21.98;11.02;;;;;;;-0.75;84.51;97296.00;4851711;29;20094;-49
2021/12/07 20:24:49;;;;;;;22.45;11.55;;;;;;;-0.88;85.17;97289.63;4841899;29;20120;-48
2021/12/07 20:27:15;;;;;;;22.48;10.68;;;;;;;-0.91;85.35;97289.75;4859829;29;20032;-50
2021/12/07 20:29:40;;;;;;;23.30;10.93;;;;;;;-0.96;85.54;97286.53;4861275;29;20039;-52
2021/12/07 20:32:06;;;;;;;19.40;10.55;;;;;;;-0.82;84.57;97281.69;4861131;29;20038;-48
2021/12/07 20:34:32;;;;;;;22.60;10.95;;;;;;;-0.74;84.56;97282.22;4859113;29;20029;-49
2021/12/07 20:36:58;;;;;;;25.40;14.27;;;;;;;-0.79;84.92;97279.00;4872115;29;20035;-50
2021/12/07 20:39:24;;;;;;;30.52;14.13;;;;;;;-0.73;84.57;97270.19;4861138;29;20029;-48
2021/12/07 20:41:50;;;;;;;26.35;12.43;;;;;;;-0.74;84.17;97263.38;4860912;29;20549;-49
2021/12/07 20:44:15;;;;;;;27.05;13.38;;;;;;;-0.92;84.65;97262.34;4861071;29;20041;-47
2021/12/07 20:46:41;;;;;;;26.92;13.20;;;;;;;-0.96;85.18;97258.19;4862118;29;20029;-51
2021/12/07 20:49:07;;;;;;;32.47;16.48;;;;;;;-0.85;84.90;97252.66;4850346;29;20463;-49
2021/12/07 20:51:32;;;;;;;33.35;15.98;;;;;;;-0.99;85.24;97240.28;4843522;29;20486;-51
2021/12/07 20:53:58;;;;;;;25.42;13.10;;;;;;;-0.96;84.43;97235.03;4843104;29;20036;-49
2021/12/07 20:56:23;;;;;;;23.30;12.82;;;;;;;-0.91;84.52;97215.09;4855242;29;20041;-49
2021/12/07 20:58:49;;;;;;;25.80;13.80;;;;;;;-0.93;85.18;97224.59;4875389;29;20501;-49
2021/12/07 21:01:17;;;;;;;29.27;13.52;;;;;;;-0.89;84.22;97213.31;4869752;29;20021;-51
2021/12/07 21:03:42;;;;;;;26.73;12.57;;;;;;;-0.93;84.88;97214.28;4861267;29;20143;-49
2021/12/07 21:06:08;;;;;;;22.20;11.32;;;;;;;-1.01;85.00;97211.19;4854189;29;20490;-47
2021/12/07 21:08:35;;;;;;;22.15;11.07;;;;;;;-0.82;84.29;97198.47;4860257;29;21223;-50
2021/12/07 21:11:01;;;;;;;26.13;11.43;;;;;;;-0.96;85.36;97188.69;4855411;29;20033;-49
2021/12/07 21:13:27;;;;;;;33.60;13.90;;;;;;;-1.09;84.81;97175.47;4860544;29;20025;-51
2021/12/07 21:15:53;;;;;;;29.10;12.88;;;;;;;-1.03;84.94;97184.69;4859132;29;20073;-48
2021/12/07 21:18:21;;;;;;;23.08;11.93;;;;;;;-1.18;85.44;97182.69;4862622;29;20069;-49
2021/12/07 21:20:47;;;;;;;26.65;13.15;;;;;;;-1.11;84.88;97174.66;4875279;29;20029;-48
2021/12/07 21:23:12;;;;;;;21.63;11.90;;;;;;;-1.02;84.63;97178.63;4860554;29;20037;-48
2021/12/07 21:25:38;;;;;;;23.98;11.00;;;;;;;-1.13;84.83;97173.06;4856277;29;20026;-49
2021/12/07 21:28:03;;;;;;;23.35;10.13;;;;;;;-1.21;85.22;97168.19;4856114;29;20029;-48
2021/12/07 21:30:29;;;;;;;19.58;9.98;;;;;;;-1.11;84.48;97158.38;4856600;29;20052;-47
2021/12/07 21:32:54;;;;;;;19.45;10.05;;;;;;;-1.19;85.25;97158.69;4861476;29;20025;-50
2021/12/07 21:35:19;;;;;;;21.95;11.05;;;;;;;-1.09;85.26;97151.47;4865029;29;20033;-48
2021/12/07 21:37:45;;;;;;;36.40;18.75;;;;;;;-1.23;85.48;97134.81;4853790;29;20040;-47
2021/12/07 21:40:13;;;;;;;30.05;16.02;;;;;;;-1.16;85.21;97144.88;4864847;29;20029;-49
2021/12/07 21:42:38;;;;;;;24.48;13.18;;;;;;;-1.12;85.22;97136.97;4859281;29;20067;-48
